sensor_id;sensor_type;location;lat;lon;timestamp;pressure;altitude;pressure_sealevel;temperature;humidity
13709;BME280;54933;51.908;7.730;2023-11-22T00:01:28;101974.25;;;22.21;64.24
13709;BME280;54933;51.908;7.730;2023-11-22T00:03:54;101970.53;;;22.22;64.11
13709;BME280;54933;51.908;7.730;2023-11-22T00:06:19;101972.84;;;22.25;64.27
13709;BME280;54933;51.908;7.730;2023-11-22T00:08:46;101968.44;;;22.24;63.86
13709;BME280;54933;51.908;7.730;2023-11-22T00:11:12;101978.25;;;22.25;64.06
13709;BME280;54933;51.908;7.730;2023-11-22T00:13:39;101975.56;;;22.25;64.01
13709;BME280;54933;51.908;7.730;2023-11-22T00:16:05;101981.81;;;22.25;64.12
13709;BME280;54933;51.908;7.730;2023-11-22T00:18:33;101991.41;;;22.28;63.97
13709;BME280;54933;51.908;7.730;2023-11-22T00:20:59;101994.97;;;22.28;63.82
13709;BME280;54933;51.908;7.730;2023-11-22T00:23:24;101991.41;;;22.28;63.78
13709;BME280;54933;51.908;7.730;2023-11-22T00:25:54;101998.47;;;22.29;64.18
13709;BME280;54933;51.908;7.730;2023-11-22T00:28:19;102000.19;;;22.30;64.14
13709;BME280;54933;51.908;7.730;2023-11-22T00:30:44;101999.13;;;22.31;64.00
13709;BME280;54933;51.908;7.730;2023-11-22T00:33:10;102005.19;;;22.33;63.89
13709;BME280;54933;51.908;7.730;2023-11-22T00:35:35;102007.91;;;22.33;63.92
13709;BME280;54933;51.908;7.730;2023-11-22T00:38:01;102009.56;;;22.34;63.78
13709;BME280;54933;51.908;7.730;2023-11-22T00:40:26;102002.28;;;22.34;63.89
13709;BME280;54933;51.908;7.730;2023-11-22T00:42:51;102002.47;;;22.33;63.69
13709;BME280;54933;51.908;7.730;2023-11-22T00:45:17;102002.28;;;22.34;63.62
13709;BME280;54933;51.908;7.730;2023-11-22T00:47:43;102013.97;;;22.35;63.90
13709;BME280;54933;51.908;7.730;2023-11-22T00:50:09;102017.28;;;22.37;63.80
13709;BME280;54933;51.908;7.730;2023-11-22T00:52:34;102012.72;;;22.37;63.74
13709;BME280;54933;51.908;7.730;2023-11-22T00:54:59;102017.94;;;22.39;63.50
13709;BME280;54933;51.908;7.730;2023-11-22T00:57:25;102023.34;;;22.39;64.19
13709;BME280;54933;51.908;7.730;2023-11-22T00:59:52;102033.19;;;22.40;63.57
13709;BME280;54933;51.908;7.730;2023-11-22T01:02:18;102033.78;;;22.42;64.49
13709;BME280;54933;51.908;7.730;2023-11-22T01:04:44;102037.56;;;22.41;63.94
13709;BME280;54933;51.908;7.730;2023-11-22T01:07:09;102029.44;;;22.41;64.26
13709;BME280;54933;51.908;7.730;2023-11-22T01:09:35;102032.78;;;22.43;63.93
13709;BME280;54933;51.908;7.730;2023-11-22T01:12:00;102027.38;;;22.43;63.93
13709;BME280;54933;51.908;7.730;2023-11-22T01:14:26;102028.19;;;22.43;63.93
13709;BME280;54933;51.908;7.730;2023-11-22T01:16:52;102034.44;;;22.44;63.88
13709;BME280;54933;51.908;7.730;2023-11-22T01:19:18;102030.72;;;22.45;63.63
13709;BME280;54933;51.908;7.730;2023-11-22T01:21:43;102022.59;;;22.45;63.85
13709;BME280;54933;51.908;7.730;2023-11-22T01:24:09;102026.97;;;22.46;63.85
13709;BME280;54933;51.908;7.730;2023-11-22T01:26:34;102029.69;;;22.46;63.90
13709;BME280;54933;51.908;7.730;2023-11-22T01:28:59;102030.31;;;22.48;63.83
13709;BME280;54933;51.908;7.730;2023-11-22T01:31:25;102037.59;;;22.47;63.86
13709;BME280;54933;51.908;7.730;2023-11-22T01:33:52;102041.97;;;22.48;63.59
13709;BME280;54933;51.908;7.730;2023-11-22T01:36:17;102052.00;;;22.48;63.77
13709;BME280;54933;51.908;7.730;2023-11-22T01:38:42;102048.25;;;22.49;63.69
13709;BME280;54933;51.908;7.730;2023-11-22T01:41:09;102056.38;;;22.49;63.88
13709;BME280;54933;51.908;7.730;2023-11-22T01:43:35;102051.59;;;22.51;63.63
13709;BME280;54933;51.908;7.730;2023-11-22T01:46:00;102057.03;;;22.51;63.82
13709;BME280;54933;51.908;7.730;2023-11-22T01:48:26;102049.91;;;22.50;63.72
13709;BME280;54933;51.908;7.730;2023-11-22T01:50:51;102057.03;;;22.51;63.56
13709;BME280;54933;51.908;7.730;2023-11-22T01:53:17;102062.44;;;22.51;63.63
13709;BME280;54933;51.908;7.730;2023-11-22T01:55:44;102064.09;;;22.52;63.41
13709;BME280;54933;51.908;7.730;2023-11-22T01:58:10;102059.38;;;22.54;63.58
13709;BME280;54933;51.908;7.730;2023-11-22T02:00:43;102071.25;;;22.53;63.50
13709;BME280;54933;51.908;7.730;2023-11-22T02:03:10;102078.31;;;22.54;63.79
13709;BME280;54933;51.908;7.730;2023-11-22T02:05:36;102083.75;;;22.54;63.74
13709;BME280;54933;51.908;7.730;2023-11-22T02:08:04;102078.31;;;22.54;63.25
13709;BME280;54933;51.908;7.730;2023-11-22T02:10:29;102084.59;;;22.54;63.47
13709;BME280;54933;51.908;7.730;2023-11-22T02:12:56;102083.56;;;22.55;63.52
13709;BME280;54933;51.908;7.730;2023-11-22T02:15:21;102088.97;;;22.55;63.58
13709;BME280;54933;51.908;7.730;2023-11-22T02:17:46;102090.84;;;22.55;63.58
13709;BME280;54933;51.908;7.730;2023-11-22T02:20:11;102100.00;;;22.54;63.36
13709;BME280;54933;51.908;7.730;2023-11-22T02:22:44;102109.78;;;22.55;63.33
13709;BME280;54933;51.908;7.730;2023-11-22T02:25:10;102115.22;;;22.55;63.41
13709;BME280;54933;51.908;7.730;2023-11-22T02:27:36;102117.91;;;22.55;63.42
13709;BME280;54933;51.908;7.730;2023-11-22T02:30:02;102122.31;;;22.56;63.23
13709;BME280;54933;51.908;7.730;2023-11-22T02:32:30;102121.28;;;22.57;63.43
13709;BME280;54933;51.908;7.730;2023-11-22T02:34:56;102121.94;;;22.59;63.09
13709;BME280;54933;51.908;7.730;2023-11-22T02:37:21;102112.31;;;22.56;63.09
13709;BME280;54933;51.908;7.730;2023-11-22T02:40:17;102109.59;;;22.56;63.13
13709;BME280;54933;51.908;7.730;2023-11-22T02:42:45;102113.16;;;22.57;63.24
13709;BME280;54933;51.908;7.730;2023-11-22T02:45:10;102102.31;;;22.57;63.25
13709;BME280;54933;51.908;7.730;2023-11-22T02:47:35;102098.97;;;22.55;63.26
13709;BME280;54933;51.908;7.730;2023-11-22T02:50:02;102092.31;;;22.57;63.09
13709;BME280;54933;51.908;7.730;2023-11-22T02:52:30;102101.31;;;22.58;63.07
13709;BME280;54933;51.908;7.730;2023-11-22T02:54:55;102105.03;;;22.57;63.39
13709;BME280;54933;51.908;7.730;2023-11-22T02:57:21;102099.59;;;22.57;63.02
13709;BME280;54933;51.908;7.730;2023-11-22T02:59:46;102101.31;;;22.58;63.12
13709;BME280;54933;51.908;7.730;2023-11-22T03:02:11;102096.69;;;22.58;63.12
13709;BME280;54933;51.908;7.730;2023-11-22T03:04:37;102106.72;;;22.58;63.10
13709;BME280;54933;51.908;7.730;2023-11-22T03:07:03;102112.13;;;22.58;62.87
13709;BME280;54933;51.908;7.730;2023-11-22T03:09:29;102121.28;;;22.57;63.19
13709;BME280;54933;51.908;7.730;2023-11-22T03:11:54;102119.22;;;22.59;62.91
13709;BME280;54933;51.908;7.730;2023-11-22T03:14:20;102115.47;;;22.60;62.92
13709;BME280;54933;51.908;7.730;2023-11-22T03:16:47;102121.94;;;22.59;63.25
13709;BME280;54933;51.908;7.730;2023-11-22T03:19:12;102115.88;;;22.57;62.88
13709;BME280;54933;51.908;7.730;2023-11-22T03:21:39;102122.13;;;22.57;62.90
13709;BME280;54933;51.908;7.730;2023-11-22T03:24:04;102128.41;;;22.58;63.26
13709;BME280;54933;51.908;7.730;2023-11-22T03:26:30;102128.41;;;22.58;63.30
13709;BME280;54933;51.908;7.730;2023-11-22T03:28:55;102133.81;;;22.58;63.29
13709;BME280;54933;51.908;7.730;2023-11-22T03:31:20;102132.13;;;22.57;63.12
13709;BME280;54933;51.908;7.730;2023-11-22T03:33:46;102132.97;;;22.57;62.91
13709;BME280;54933;51.908;7.730;2023-11-22T03:36:12;102138.19;;;22.59;63.15
13709;BME280;54933;51.908;7.730;2023-11-22T03:38:39;102137.53;;;22.57;63.02
13709;BME280;54933;51.908;7.730;2023-11-22T03:41:04;102139.22;;;22.58;63.22
13709;BME280;54933;51.908;7.730;2023-11-22T03:43:30;102139.22;;;22.58;63.37
13709;BME280;54933;51.908;7.730;2023-11-22T03:45:55;102139.03;;;22.59;63.05
13709;BME280;54933;51.908;7.730;2023-11-22T03:48:20;102140.06;;;22.58;62.91
13709;BME280;54933;51.908;7.730;2023-11-22T03:50:47;102140.91;;;22.59;63.26
13709;BME280;54933;51.908;7.730;2023-11-22T03:53:12;102158.81;;;22.60;63.16
13709;BME280;54933;51.908;7.730;2023-11-22T03:55:37;102160.72;;;22.59;62.93
13709;BME280;54933;51.908;7.730;2023-11-22T03:58:03;102180.69;;;22.58;63.13
13709;BME280;54933;51.908;7.730;2023-11-22T04:00:28;102185.91;;;22.60;62.94
13709;BME280;54933;51.908;7.730;2023-11-22T04:02:53;102197.78;;;22.59;63.14
13709;BME280;54933;51.908;7.730;2023-11-22T04:05:19;102199.47;;;22.60;62.89
13709;BME280;54933;51.908;7.730;2023-11-22T04:07:45;102217.59;;;22.59;63.06
13709;BME280;54933;51.908;7.730;2023-11-22T04:10:10;102222.19;;;22.59;63.05
13709;BME280;54933;51.908;7.730;2023-11-22T04:12:36;102216.75;;;22.59;62.86
13709;BME280;54933;51.908;7.730;2023-11-22T04:15:02;102219.28;;;22.60;63.06
13709;BME280;54933;51.908;7.730;2023-11-22T04:17:28;102221.13;;;22.60;63.07
13709;BME280;54933;51.908;7.730;2023-11-22T04:19:53;102222.19;;;22.59;62.97
13709;BME280;54933;51.908;7.730;2023-11-22T04:22:18;102220.31;;;22.59;62.98
13709;BME280;54933;51.908;7.730;2023-11-22T04:24:43;102207.59;;;22.60;62.77
13709;BME280;54933;51.908;7.730;2023-11-22T04:27:09;102204.88;;;22.60;62.89
13709;BME280;54933;51.908;7.730;2023-11-22T04:29:34;102200.50;;;22.59;63.12
13709;BME280;54933;51.908;7.730;2023-11-22T04:32:00;102202.16;;;22.60;62.90
13709;BME280;54933;51.908;7.730;2023-11-22T04:34:25;102196.75;;;22.60;62.89
13709;BME280;54933;51.908;7.730;2023-11-22T04:36:50;102199.66;;;22.58;62.99
13709;BME280;54933;51.908;7.730;2023-11-22T04:39:15;102198.00;;;22.57;62.81
13709;BME280;54933;51.908;7.730;2023-11-22T04:41:41;102191.72;;;22.57;62.92
13709;BME280;54933;51.908;7.730;2023-11-22T04:44:06;102198.84;;;22.58;63.09
13709;BME280;54933;51.908;7.730;2023-11-22T04:46:31;102186.31;;;22.57;62.83
13709;BME280;54933;51.908;7.730;2023-11-22T04:48:57;102183.78;;;22.55;62.78
13709;BME280;54933;51.908;7.730;2023-11-22T04:51:22;102181.28;;;22.54;63.11
13709;BME280;54933;51.908;7.730;2023-11-22T04:53:49;102190.44;;;22.53;62.87
13709;BME280;54933;51.908;7.730;2023-11-22T04:56:14;102192.31;;;22.52;62.96
13709;BME280;54933;51.908;7.730;2023-11-22T04:58:39;102198.75;;;22.51;62.95
13709;BME280;54933;51.908;7.730;2023-11-22T05:01:05;102202.47;;;22.50;62.79
13709;BME280;54933;51.908;7.730;2023-11-22T05:03:30;102207.03;;;22.50;62.96
13709;BME280;54933;51.908;7.730;2023-11-22T05:05:55;102223.13;;;22.51;63.19
13709;BME280;54933;51.908;7.730;2023-11-22T05:08:20;102235.81;;;22.51;62.80
13709;BME280;54933;51.908;7.730;2023-11-22T05:10:46;102248.31;;;22.52;63.20
13709;BME280;54933;51.908;7.730;2023-11-22T05:13:11;102244.63;;;22.53;63.04
13709;BME280;54933;51.908;7.730;2023-11-22T05:15:37;102255.47;;;22.53;63.12
13709;BME280;54933;51.908;7.730;2023-11-22T05:18:02;102250.03;;;22.53;62.99
13709;BME280;54933;51.908;7.730;2023-11-22T05:20:27;102244.63;;;22.53;62.98
13709;BME280;54933;51.908;7.730;2023-11-22T05:22:53;102245.44;;;22.53;62.69
13709;BME280;54933;51.908;7.730;2023-11-22T05:25:18;102256.09;;;22.55;62.90
13709;BME280;54933;51.908;7.730;2023-11-22T05:27:43;102244.25;;;22.56;63.16
13709;BME280;54933;51.908;7.730;2023-11-22T05:30:09;102238.81;;;22.56;62.78
13709;BME280;54933;51.908;7.730;2023-11-22T05:32:35;102248.81;;;22.55;62.79
13709;BME280;54933;51.908;7.730;2023-11-22T05:35:01;102255.06;;;22.56;62.86
13709;BME280;54933;51.908;7.730;2023-11-22T05:37:26;102256.75;;;22.57;62.63
13709;BME280;54933;51.908;7.730;2023-11-22T05:39:51;102243.19;;;22.57;63.14
13709;BME280;54933;51.908;7.730;2023-11-22T05:42:16;102247.59;;;22.58;62.73
13709;BME280;54933;51.908;7.730;2023-11-22T05:44:43;102250.94;;;22.60;62.89
13709;BME280;54933;51.908;7.730;2023-11-22T05:47:08;102236.59;;;22.45;62.69
13709;BME280;54933;51.908;7.730;2023-11-22T05:49:34;102250.44;;;22.21;63.33
13709;BME280;54933;51.908;7.730;2023-11-22T05:51:59;102257.75;;;22.06;63.58
13709;BME280;54933;51.908;7.730;2023-11-22T05:54:25;102252.25;;;21.99;63.94
13709;BME280;54933;51.908;7.730;2023-11-22T05:56:50;102251.13;;;21.94;64.23
13709;BME280;54933;51.908;7.730;2023-11-22T05:59:15;102250.84;;;21.89;64.32
13709;BME280;54933;51.908;7.730;2023-11-22T06:01:40;102254.56;;;21.88;64.33
13709;BME280;54933;51.908;7.730;2023-11-22T06:04:06;102251.22;;;21.86;64.83
13709;BME280;54933;51.908;7.730;2023-11-22T06:06:34;102257.63;;;21.85;65.26
13709;BME280;54933;51.908;7.730;2023-11-22T06:08:59;102260.34;;;21.85;65.18
13709;BME280;54933;51.908;7.730;2023-11-22T06:11:25;102263.69;;;21.87;64.99
13709;BME280;54933;51.908;7.730;2023-11-22T06:13:50;102264.75;;;21.86;64.41
13709;BME280;54933;51.908;7.730;2023-11-22T06:16:16;102267.06;;;21.89;65.13
13709;BME280;54933;51.908;7.730;2023-11-22T06:18:41;102282.28;;;21.90;65.11
13709;BME280;54933;51.908;7.730;2023-11-22T06:21:07;102272.84;;;21.86;65.16
13709;BME280;54933;51.908;7.730;2023-11-22T06:23:33;102273.97;;;21.77;65.47
13709;BME280;54933;51.908;7.730;2023-11-22T06:25:58;102279.53;;;21.75;65.38
13709;BME280;54933;51.908;7.730;2023-11-22T06:28:24;102284.31;;;21.73;65.42
13709;BME280;54933;51.908;7.730;2023-11-22T06:30:49;102286.47;;;21.78;65.84
13709;BME280;54933;51.908;7.730;2023-11-22T06:33:14;102291.88;;;21.78;65.75
13709;BME280;54933;51.908;7.730;2023-11-22T06:35:40;102288.50;;;21.76;65.58
13709;BME280;54933;51.908;7.730;2023-11-22T06:38:07;102302.38;;;20.13;62.73
13709;BME280;54933;51.908;7.730;2023-11-22T06:40:33;102298.19;;;20.02;62.23
13709;BME280;54933;51.908;7.730;2023-11-22T06:42:58;102294.06;;;19.12;61.23
13709;BME280;54933;51.908;7.730;2023-11-22T06:45:23;102292.22;;;20.23;60.10
13709;BME280;54933;51.908;7.730;2023-11-22T06:47:49;102287.91;;;20.83;59.60
13709;BME280;54933;51.908;7.730;2023-11-22T06:50:15;102286.53;;;21.10;59.52
13709;BME280;54933;51.908;7.730;2023-11-22T06:52:41;102282.69;;;21.27;59.66
13709;BME280;54933;51.908;7.730;2023-11-22T06:55:08;102281.59;;;21.36;59.49
13709;BME280;54933;51.908;7.730;2023-11-22T06:57:35;102285.06;;;21.44;59.67
13709;BME280;54933;51.908;7.730;2023-11-22T07:00:01;102276.59;;;21.47;59.83
13709;BME280;54933;51.908;7.730;2023-11-22T07:02:29;102279.41;;;21.54;59.80
13709;BME280;54933;51.908;7.730;2023-11-22T07:04:55;102283.25;;;21.60;59.95
13709;BME280;54933;51.908;7.730;2023-11-22T07:07:20;102287.25;;;21.64;59.84
13709;BME280;54933;51.908;7.730;2023-11-22T07:09:46;102293.31;;;21.66;60.01
13709;BME280;54933;51.908;7.730;2023-11-22T07:12:11;102295.66;;;21.69;60.06
13709;BME280;54933;51.908;7.730;2023-11-22T07:14:37;102294.41;;;21.19;59.71
13709;BME280;54933;51.908;7.730;2023-11-22T07:17:02;102299.06;;;21.48;58.75
13709;BME280;54933;51.908;7.730;2023-11-22T07:19:28;102311.31;;;21.58;58.88
13709;BME280;54933;51.908;7.730;2023-11-22T07:21:53;102314.31;;;21.64;59.27
13709;BME280;54933;51.908;7.730;2023-11-22T07:24:18;102326.44;;;21.68;59.61
13709;BME280;54933;51.908;7.730;2023-11-22T07:26:44;102328.78;;;21.71;59.79
13709;BME280;54933;51.908;7.730;2023-11-22T07:29:09;102333.81;;;21.74;59.56
13709;BME280;54933;51.908;7.730;2023-11-22T07:31:36;102325.53;;;21.75;59.69
13709;BME280;54933;51.908;7.730;2023-11-22T07:34:02;102328.06;;;21.77;59.54
13709;BME280;54933;51.908;7.730;2023-11-22T07:36:27;102327.72;;;21.80;59.90
13709;BME280;54933;51.908;7.730;2023-11-22T07:38:54;102333.78;;;21.82;60.30
13709;BME280;54933;51.908;7.730;2023-11-22T07:41:19;102336.47;;;21.82;60.10
13709;BME280;54933;51.908;7.730;2023-11-22T07:43:44;102338.81;;;21.85;59.93
13709;BME280;54933;51.908;7.730;2023-11-22T07:46:09;102337.81;;;21.86;60.31
13709;BME280;54933;51.908;7.730;2023-11-22T07:48:38;102334.72;;;21.89;60.08
13709;BME280;54933;51.908;7.730;2023-11-22T07:51:04;102330.97;;;21.90;60.40
13709;BME280;54933;51.908;7.730;2023-11-22T07:53:30;102328.09;;;21.91;60.30
13709;BME280;54933;51.908;7.730;2023-11-22T07:55:59;102317.13;;;21.93;60.44
13709;BME280;54933;51.908;7.730;2023-11-22T07:58:24;102315.03;;;21.95;60.42
13709;BME280;54933;51.908;7.730;2023-11-22T08:00:50;102300.50;;;21.96;60.40
13709;BME280;54933;51.908;7.730;2023-11-22T08:03:16;102295.91;;;21.96;60.21
13709;BME280;54933;51.908;7.730;2023-11-22T08:05:43;102289.28;;;21.99;60.59
13709;BME280;54933;51.908;7.730;2023-11-22T08:08:13;102291.81;;;22.00;60.71
13709;BME280;54933;51.908;7.730;2023-11-22T08:10:38;102284.53;;;22.01;60.84
13709;BME280;54933;51.908;7.730;2023-11-22T08:13:03;102292.28;;;22.04;60.44
13709;BME280;54933;51.908;7.730;2023-11-22T08:15:29;102299.38;;;22.05;60.48
13709;BME280;54933;51.908;7.730;2023-11-22T08:17:57;102306.28;;;22.07;60.69
13709;BME280;54933;51.908;7.730;2023-11-22T08:20:22;102314.22;;;22.09;60.68
13709;BME280;54933;51.908;7.730;2023-11-22T08:22:47;102323.81;;;22.11;60.24
13709;BME280;54933;51.908;7.730;2023-11-22T08:25:16;102332.78;;;22.12;60.83
13709;BME280;54933;51.908;7.730;2023-11-22T08:27:41;102341.59;;;22.14;60.51
13709;BME280;54933;51.908;7.730;2023-11-22T08:30:08;102339.50;;;22.16;60.74
13709;BME280;54933;51.908;7.730;2023-11-22T08:32:42;102355.41;;;22.19;60.79
13709;BME280;54933;51.908;7.730;2023-11-22T08:35:08;102359.78;;;22.05;60.73
13709;BME280;54933;51.908;7.730;2023-11-22T08:37:34;102372.34;;;21.16;60.18
13709;BME280;54933;51.908;7.730;2023-11-22T08:40:01;102410.50;;;18.05;55.60
13709;BME280;54933;51.908;7.730;2023-11-22T08:42:27;102398.56;;;19.82;54.29
13709;BME280;54933;51.908;7.730;2023-11-22T08:44:52;102403.84;;;20.62;54.41
13709;BME280;54933;51.908;7.730;2023-11-22T08:47:17;102411.09;;;21.00;54.42
13709;BME280;54933;51.908;7.730;2023-11-22T08:49:43;102405.25;;;21.19;54.81
13709;BME280;54933;51.908;7.730;2023-11-22T08:52:08;102401.31;;;21.30;54.90
13709;BME280;54933;51.908;7.730;2023-11-22T08:54:33;102413.09;;;21.37;54.69
13709;BME280;54933;51.908;7.730;2023-11-22T08:56:59;102415.91;;;21.43;54.70
13709;BME280;54933;51.908;7.730;2023-11-22T08:59:25;102411.81;;;21.47;55.12
13709;BME280;54933;51.908;7.730;2023-11-22T09:01:50;102400.44;;;21.52;54.94
13709;BME280;54933;51.908;7.730;2023-11-22T09:04:16;102384.06;;;21.53;55.27
13709;BME280;54933;51.908;7.730;2023-11-22T09:06:41;102387.03;;;21.58;55.31
13709;BME280;54933;51.908;7.730;2023-11-22T09:09:07;102380.25;;;21.63;55.65
13709;BME280;54933;51.908;7.730;2023-11-22T09:11:33;102384.47;;;21.65;55.60
13709;BME280;54933;51.908;7.730;2023-11-22T09:14:00;102388.69;;;21.68;55.85
13709;BME280;54933;51.908;7.730;2023-11-22T09:16:27;102382.91;;;21.71;56.19
13709;BME280;54933;51.908;7.730;2023-11-22T09:18:52;102362.59;;;21.75;56.24
13709;BME280;54933;51.908;7.730;2023-11-22T09:21:19;102359.72;;;21.76;56.45
13709;BME280;54933;51.908;7.730;2023-11-22T09:23:46;102354.78;;;21.80;56.27
13709;BME280;54933;51.908;7.730;2023-11-22T09:26:13;102365.63;;;21.80;57.00
13709;BME280;54933;51.908;7.730;2023-11-22T09:28:39;102349.00;;;21.83;57.03
13709;BME280;54933;51.908;7.730;2023-11-22T09:31:05;102341.53;;;21.85;56.80
13709;BME280;54933;51.908;7.730;2023-11-22T09:33:31;102343.22;;;21.86;57.16
13709;BME280;54933;51.908;7.730;2023-11-22T09:35:57;102360.94;;;21.88;57.28
13709;BME280;54933;51.908;7.730;2023-11-22T09:38:23;102363.47;;;21.90;57.16
13709;BME280;54933;51.908;7.730;2023-11-22T09:40:49;102372.44;;;21.90;57.61
13709;BME280;54933;51.908;7.730;2023-11-22T09:43:16;102367.88;;;21.91;57.74
13709;BME280;54933;51.908;7.730;2023-11-22T09:45:43;102372.91;;;21.94;57.70
13709;BME280;54933;51.908;7.730;2023-11-22T09:48:19;102383.75;;;21.94;57.73
13709;BME280;54933;51.908;7.730;2023-11-22T09:51:14;102390.81;;;21.95;58.07
13709;BME280;54933;51.908;7.730;2023-11-22T09:56:09;102379.63;;;21.98;57.95
13709;BME280;54933;51.908;7.730;2023-11-22T09:58:40;102391.13;;;22.00;58.10
13709;BME280;54933;51.908;7.730;2023-11-22T10:01:12;102399.06;;;22.01;58.21
13709;BME280;54933;51.908;7.730;2023-11-22T10:03:38;102401.75;;;22.01;58.19
13709;BME280;54933;51.908;7.730;2023-11-22T10:06:04;102399.53;;;22.05;58.23
13709;BME280;54933;51.908;7.730;2023-11-22T10:08:29;102388.69;;;22.05;58.73
13709;BME280;54933;51.908;7.730;2023-11-22T10:10:57;102386.84;;;22.05;58.49
13709;BME280;54933;51.908;7.730;2023-11-22T10:13:23;102374.78;;;22.08;58.28
13709;BME280;54933;51.908;7.730;2023-11-22T10:15:52;102364.81;;;22.08;58.56
13709;BME280;54933;51.908;7.730;2023-11-22T10:18:18;102377.13;;;22.11;58.52
13709;BME280;54933;51.908;7.730;2023-11-22T10:20:45;102382.38;;;22.12;58.80
13709;BME280;54933;51.908;7.730;2023-11-22T10:23:15;102383.19;;;22.13;58.67
13709;BME280;54933;51.908;7.730;2023-11-22T10:25:44;102378.63;;;22.13;58.68
13709;BME280;54933;51.908;7.730;2023-11-22T10:28:10;102382.81;;;22.16;58.78
13709;BME280;54933;51.908;7.730;2023-11-22T10:30:35;102382.81;;;22.16;58.75
13709;BME280;54933;51.908;7.730;2023-11-22T10:33:02;102386.19;;;22.18;58.87
13709;BME280;54933;51.908;7.730;2023-11-22T10:35:28;102381.63;;;22.18;58.84
13709;BME280;54933;51.908;7.730;2023-11-22T10:37:53;102386.19;;;22.18;58.87
13709;BME280;54933;51.908;7.730;2023-11-22T10:40:18;102367.91;;;22.20;58.87
13709;BME280;54933;51.908;7.730;2023-11-22T10:42:47;102365.84;;;22.22;58.96
13709;BME280;54933;51.908;7.730;2023-11-22T10:45:15;102361.91;;;22.24;58.84
13709;BME280;54933;51.908;7.730;2023-11-22T10:47:42;102352.94;;;22.24;58.98
13709;BME280;54933;51.908;7.730;2023-11-22T10:50:09;102357.34;;;22.25;59.01
13709;BME280;54933;51.908;7.730;2023-11-22T10:52:36;102369.66;;;22.27;58.85
13709;BME280;54933;51.908;7.730;2023-11-22T10:55:03;102360.53;;;22.28;59.15
13709;BME280;54933;51.908;7.730;2023-11-22T10:57:40;102353.88;;;22.31;59.07
13709;BME280;54933;51.908;7.730;2023-11-22T11:00:08;102350.19;;;22.32;59.42
13709;BME280;54933;51.908;7.730;2023-11-22T11:02:40;102353.88;;;22.31;59.07
13709;BME280;54933;51.908;7.730;2023-11-22T11:05:18;102346.63;;;22.31;59.18
13709;BME280;54933;51.908;7.730;2023-11-22T11:07:51;102352.50;;;22.35;59.06
13709;BME280;54933;51.908;7.730;2023-11-22T11:10:20;102347.09;;;22.35;59.50
13709;BME280;54933;51.908;7.730;2023-11-22T11:12:46;102340.63;;;22.36;59.37
13709;BME280;54933;51.908;7.730;2023-11-22T11:15:12;102342.28;;;22.37;59.13
13709;BME280;54933;51.908;7.730;2023-11-22T11:17:37;102341.28;;;22.38;59.13
13709;BME280;54933;51.908;7.730;2023-11-22T11:20:05;102330.06;;;22.41;59.38
13709;BME280;54933;51.908;7.730;2023-11-22T11:22:32;102324.66;;;22.41;59.42
13709;BME280;54933;51.908;7.730;2023-11-22T11:25:04;102323.00;;;22.40;59.35
13709;BME280;54933;51.908;7.730;2023-11-22T11:27:33;102328.22;;;22.41;59.20
13709;BME280;54933;51.908;7.730;2023-11-22T11:29:58;102338.88;;;22.43;59.52
13709;BME280;54933;51.908;7.730;2023-11-22T11:32:31;102339.88;;;22.42;59.35
13709;BME280;54933;51.908;7.730;2023-11-22T11:35:05;102343.25;;;22.44;59.36
13709;BME280;54933;51.908;7.730;2023-11-22T11:37:33;102332.41;;;22.44;59.31
13709;BME280;54933;51.908;7.730;2023-11-22T11:39:58;102318.66;;;22.45;59.61
13709;BME280;54933;51.908;7.730;2023-11-22T11:42:24;102324.09;;;22.45;59.42
13709;BME280;54933;51.908;7.730;2023-11-22T11:47:27;102321.19;;;22.47;59.21
13709;BME280;54933;51.908;7.730;2023-11-22T11:49:52;102311.19;;;22.47;59.31
13709;BME280;54933;51.908;7.730;2023-11-22T11:52:17;102301.41;;;22.46;59.77
13709;BME280;54933;51.908;7.730;2023-11-22T11:54:43;102284.97;;;22.48;59.39
13709;BME280;54933;51.908;7.730;2023-11-22T11:57:09;102270.38;;;22.49;59.21
13709;BME280;54933;51.908;7.730;2023-11-22T11:59:35;102252.44;;;22.48;59.81
13709;BME280;54933;51.908;7.730;2023-11-22T12:02:00;102249.34;;;22.51;59.63
13709;BME280;54933;51.908;7.730;2023-11-22T12:04:25;102241.22;;;22.51;59.73
13709;BME280;54933;51.908;7.730;2023-11-22T12:06:51;102215.16;;;22.50;59.80
13709;BME280;54933;51.908;7.730;2023-11-22T12:09:24;102205.84;;;22.52;59.65
13709;BME280;54933;51.908;7.730;2023-11-22T12:11:50;102197.88;;;22.51;59.60
13709;BME280;54933;51.908;7.730;2023-11-22T12:14:16;102192.31;;;22.52;59.57
13709;BME280;54933;51.908;7.730;2023-11-22T12:16:41;102204.97;;;22.52;59.57
13709;BME280;54933;51.908;7.730;2023-11-22T12:19:09;102202.09;;;22.53;59.86
13709;BME280;54933;51.908;7.730;2023-11-22T12:21:36;102195.88;;;22.53;59.90
13709;BME280;54933;51.908;7.730;2023-11-22T12:24:02;102192.13;;;22.54;59.61
13709;BME280;54933;51.908;7.730;2023-11-22T12:26:31;102182.13;;;22.54;59.75
13709;BME280;54933;51.908;7.730;2023-11-22T12:28:58;102186.69;;;22.54;60.04
13709;BME280;54933;51.908;7.730;2023-11-22T12:31:24;102176.50;;;22.56;59.72
13709;BME280;54933;51.908;7.730;2023-11-22T12:33:49;102162.31;;;22.54;59.71
13709;BME280;54933;51.908;7.730;2023-11-22T12:36:15;102171.91;;;22.56;59.61
13709;BME280;54933;51.908;7.730;2023-11-22T12:38:43;102176.50;;;22.56;59.79
13709;BME280;54933;51.908;7.730;2023-11-22T12:41:08;102179.03;;;22.57;59.67
13709;BME280;54933;51.908;7.730;2023-11-22T12:43:34;102181.63;;;22.51;59.76
13709;BME280;54933;51.908;7.730;2023-11-22T12:46:05;102164.84;;;20.95;55.93
13709;BME280;54933;51.908;7.730;2023-11-22T12:48:38;102172.63;;;21.65;54.75
13709;BME280;54933;51.908;7.730;2023-11-22T12:51:17;102184.56;;;21.85;54.66